sensor_id;sensor_type;location;lat;lon;timestamp;P1;durP1;ratioP1;P2;durP2;ratioP2
70707;SDS011;58277;47.316;18.908;2023-07-20T00:01:40;11.13;;;3.80;;
70707;SDS011;58277;47.316;18.908;2023-07-20T00:04:07;8.95;;;3.15;;
70707;SDS011;58277;47.316;18.908;2023-07-20T00:06:30;8.65;;;3.63;;
70707;SDS011;58277;47.316;18.908;2023-07-20T00:08:54;6.53;;;3.50;;
70707;SDS011;58277;47.316;18.908;2023-07-20T00:11:19;7.60;;;3.37;;
70707;SDS011;58277;47.316;18.908;2023-07-20T00:13:42;8.43;;;3.63;;
70707;SDS011;58277;47.316;18.908;2023-07-20T00:16:04;7.25;;;3.50;;
70707;SDS011;58277;47.316;18.908;2023-07-20T00:18:27;8.40;;;3.58;;
70707;SDS011;58277;47.316;18.908;2023-07-20T00:20:50;7.78;;;3.63;;
70707;SDS011;58277;47.316;18.908;2023-07-20T00:23:13;6.93;;;3.23;;
70707;SDS011;58277;47.316;18.908;2023-07-20T00:25:36;6.45;;;3.15;;
70707;SDS011;58277;47.316;18.908;2023-07-20T00:27:59;7.18;;;3.45;;
70707;SDS011;58277;47.316;18.908;2023-07-20T00:30:22;6.80;;;3.17;;
70707;SDS011;58277;47.316;18.908;2023-07-20T00:32:45;7.05;;;3.30;;
70707;SDS011;58277;47.316;18.908;2023-07-20T00:35:08;7.60;;;3.17;;
70707;SDS011;58277;47.316;18.908;2023-07-20T00:37:31;6.60;;;3.17;;
70707;SDS011;58277;47.316;18.908;2023-07-20T00:39:54;7.22;;;3.28;;
70707;SDS011;58277;47.316;18.908;2023-07-20T00:42:17;7.60;;;3.33;;
70707;SDS011;58277;47.316;18.908;2023-07-20T00:44:40;6.53;;;3.42;;
70707;SDS011;58277;47.316;18.908;2023-07-20T00:47:03;5.27;;;3.10;;
70707;SDS011;58277;47.316;18.908;2023-07-20T00:49:28;8.88;;;3.38;;
70707;SDS011;58277;47.316;18.908;2023-07-20T00:51:52;7.18;;;3.30;;
70707;SDS011;58277;47.316;18.908;2023-07-20T00:54:15;6.32;;;3.38;;
70707;SDS011;58277;47.316;18.908;2023-07-20T00:56:42;7.13;;;3.15;;
70707;SDS011;58277;47.316;18.908;2023-07-20T00:59:08;7.43;;;3.10;;
70707;SDS011;58277;47.316;18.908;2023-07-20T01:01:35;5.63;;;3.10;;
70707;SDS011;58277;47.316;18.908;2023-07-20T01:03:58;6.03;;;3.22;;
70707;SDS011;58277;47.316;18.908;2023-07-20T01:06:26;6.32;;;3.45;;
70707;SDS011;58277;47.316;18.908;2023-07-20T01:14:11;8.20;;;3.50;;
70707;SDS011;58277;47.316;18.908;2023-07-20T01:16:34;10.63;;;3.65;;
70707;SDS011;58277;47.316;18.908;2023-07-20T01:18:57;11.25;;;3.30;;
70707;SDS011;58277;47.316;18.908;2023-07-20T01:21:27;7.00;;;3.80;;
70707;SDS011;58277;47.316;18.908;2023-07-20T01:24:18;7.67;;;3.67;;
70707;SDS011;58277;47.316;18.908;2023-07-20T01:26:54;7.43;;;3.35;;
70707;SDS011;58277;47.316;18.908;2023-07-20T01:32:37;8.70;;;3.53;;
70707;SDS011;58277;47.316;18.908;2023-07-20T01:35:05;6.72;;;3.60;;
70707;SDS011;58277;47.316;18.908;2023-07-20T01:37:29;6.97;;;3.20;;
70707;SDS011;58277;47.316;18.908;2023-07-20T01:39:54;6.63;;;3.83;;
70707;SDS011;58277;47.316;18.908;2023-07-20T01:42:19;7.80;;;3.85;;
70707;SDS011;58277;47.316;18.908;2023-07-20T01:44:42;5.95;;;3.80;;
70707;SDS011;58277;47.316;18.908;2023-07-20T01:47:05;9.20;;;4.13;;
70707;SDS011;58277;47.316;18.908;2023-07-20T01:49:28;7.47;;;3.53;;
70707;SDS011;58277;47.316;18.908;2023-07-20T01:51:51;9.70;;;3.72;;
70707;SDS011;58277;47.316;18.908;2023-07-20T01:54:14;8.93;;;3.80;;
70707;SDS011;58277;47.316;18.908;2023-07-20T01:56:38;6.65;;;3.80;;
70707;SDS011;58277;47.316;18.908;2023-07-20T01:59:02;8.25;;;3.90;;
70707;SDS011;58277;47.316;18.908;2023-07-20T02:01:31;7.40;;;3.70;;
70707;SDS011;58277;47.316;18.908;2023-07-20T02:03:54;7.55;;;3.50;;
70707;SDS011;58277;47.316;18.908;2023-07-20T02:06:17;5.35;;;3.58;;
70707;SDS011;58277;47.316;18.908;2023-07-20T02:08:40;7.95;;;3.65;;
70707;SDS011;58277;47.316;18.908;2023-07-20T02:11:03;7.03;;;3.55;;
70707;SDS011;58277;47.316;18.908;2023-07-20T02:13:27;8.83;;;4.00;;
70707;SDS011;58277;47.316;18.908;2023-07-20T02:15:49;11.35;;;4.03;;
70707;SDS011;58277;47.316;18.908;2023-07-20T02:18:13;8.13;;;3.58;;
70707;SDS011;58277;47.316;18.908;2023-07-20T02:20:37;7.90;;;3.63;;
70707;SDS011;58277;47.316;18.908;2023-07-20T02:23:00;6.40;;;3.28;;
70707;SDS011;58277;47.316;18.908;2023-07-20T02:25:26;9.10;;;3.83;;
70707;SDS011;58277;47.316;18.908;2023-07-20T02:27:49;7.72;;;3.83;;
70707;SDS011;58277;47.316;18.908;2023-07-20T02:30:12;7.95;;;3.58;;
70707;SDS011;58277;47.316;18.908;2023-07-20T02:32:36;10.60;;;3.70;;
70707;SDS011;58277;47.316;18.908;2023-07-20T02:35:00;7.82;;;3.80;;
70707;SDS011;58277;47.316;18.908;2023-07-20T02:37:24;10.30;;;4.07;;
70707;SDS011;58277;47.316;18.908;2023-07-20T02:39:47;8.68;;;3.70;;
70707;SDS011;58277;47.316;18.908;2023-07-20T02:42:10;8.40;;;3.53;;
70707;SDS011;58277;47.316;18.908;2023-07-20T02:44:33;10.15;;;3.80;;
70707;SDS011;58277;47.316;18.908;2023-07-20T02:46:56;6.40;;;3.45;;
70707;SDS011;58277;47.316;18.908;2023-07-20T02:49:19;9.63;;;4.00;;
70707;SDS011;58277;47.316;18.908;2023-07-20T02:51:42;8.30;;;3.80;;
70707;SDS011;58277;47.316;18.908;2023-07-20T02:54:06;9.20;;;3.60;;
70707;SDS011;58277;47.316;18.908;2023-07-20T02:56:29;8.55;;;3.40;;
70707;SDS011;58277;47.316;18.908;2023-07-20T02:58:52;9.15;;;4.10;;
70707;SDS011;58277;47.316;18.908;2023-07-20T03:01:15;7.93;;;3.70;;
70707;SDS011;58277;47.316;18.908;2023-07-20T03:03:38;8.07;;;3.65;;
70707;SDS011;58277;47.316;18.908;2023-07-20T03:06:01;7.38;;;4.00;;
70707;SDS011;58277;47.316;18.908;2023-07-20T03:08:25;8.60;;;3.78;;
70707;SDS011;58277;47.316;18.908;2023-07-20T03:10:48;8.60;;;4.07;;
70707;SDS011;58277;47.316;18.908;2023-07-20T03:13:10;8.03;;;3.40;;
70707;SDS011;58277;47.316;18.908;2023-07-20T03:15:35;7.32;;;3.63;;
70707;SDS011;58277;47.316;18.908;2023-07-20T03:17:58;7.05;;;3.97;;
70707;SDS011;58277;47.316;18.908;2023-07-20T03:20:23;6.15;;;3.88;;
70707;SDS011;58277;47.316;18.908;2023-07-20T03:22:46;8.02;;;3.88;;
70707;SDS011;58277;47.316;18.908;2023-07-20T03:25:10;10.10;;;3.57;;
70707;SDS011;58277;47.316;18.908;2023-07-20T03:27:32;5.32;;;3.60;;
70707;SDS011;58277;47.316;18.908;2023-07-20T03:29:56;7.32;;;3.72;;
70707;SDS011;58277;47.316;18.908;2023-07-20T03:32:19;7.95;;;3.72;;
70707;SDS011;58277;47.316;18.908;2023-07-20T03:34:42;8.05;;;3.60;;
70707;SDS011;58277;47.316;18.908;2023-07-20T03:37:06;7.37;;;3.63;;
70707;SDS011;58277;47.316;18.908;2023-07-20T03:39:28;9.43;;;3.92;;
70707;SDS011;58277;47.316;18.908;2023-07-20T03:41:51;7.18;;;4.00;;
70707;SDS011;58277;47.316;18.908;2023-07-20T03:44:15;8.73;;;4.05;;
70707;SDS011;58277;47.316;18.908;2023-07-20T03:46:38;7.22;;;3.72;;
70707;SDS011;58277;47.316;18.908;2023-07-20T03:49:01;7.23;;;3.60;;
70707;SDS011;58277;47.316;18.908;2023-07-20T03:51:24;7.65;;;3.70;;
70707;SDS011;58277;47.316;18.908;2023-07-20T03:53:46;8.15;;;3.83;;
70707;SDS011;58277;47.316;18.908;2023-07-20T03:56:09;7.97;;;4.32;;
70707;SDS011;58277;47.316;18.908;2023-07-20T03:58:32;7.68;;;3.85;;
70707;SDS011;58277;47.316;18.908;2023-07-20T04:00:55;8.10;;;4.07;;
70707;SDS011;58277;47.316;18.908;2023-07-20T04:03:20;12.48;;;4.00;;
70707;SDS011;58277;47.316;18.908;2023-07-20T04:05:45;7.43;;;3.75;;
70707;SDS011;58277;47.316;18.908;2023-07-20T04:08:09;6.68;;;3.92;;
70707;SDS011;58277;47.316;18.908;2023-07-20T04:10:34;10.55;;;4.35;;
70707;SDS011;58277;47.316;18.908;2023-07-20T04:12:57;8.90;;;3.90;;
70707;SDS011;58277;47.316;18.908;2023-07-20T04:15:20;8.32;;;3.75;;
70707;SDS011;58277;47.316;18.908;2023-07-20T04:17:44;9.38;;;3.90;;
70707;SDS011;58277;47.316;18.908;2023-07-20T04:20:08;7.60;;;3.97;;
70707;SDS011;58277;47.316;18.908;2023-07-20T04:22:32;7.40;;;3.95;;
70707;SDS011;58277;47.316;18.908;2023-07-20T04:25:10;7.47;;;4.13;;
70707;SDS011;58277;47.316;18.908;2023-07-20T04:27:34;7.60;;;3.50;;
70707;SDS011;58277;47.316;18.908;2023-07-20T04:30:00;7.78;;;3.95;;
70707;SDS011;58277;47.316;18.908;2023-07-20T04:32:27;7.43;;;3.50;;
70707;SDS011;58277;47.316;18.908;2023-07-20T04:34:50;6.15;;;3.60;;
70707;SDS011;58277;47.316;18.908;2023-07-20T04:37:14;7.27;;;3.30;;
70707;SDS011;58277;47.316;18.908;2023-07-20T04:39:37;7.15;;;3.47;;
70707;SDS011;58277;47.316;18.908;2023-07-20T04:42:05;6.25;;;3.65;;
70707;SDS011;58277;47.316;18.908;2023-07-20T04:44:27;6.00;;;3.45;;
70707;SDS011;58277;47.316;18.908;2023-07-20T04:46:50;5.80;;;3.72;;
70707;SDS011;58277;47.316;18.908;2023-07-20T04:49:13;6.20;;;3.20;;
70707;SDS011;58277;47.316;18.908;2023-07-20T04:51:39;6.65;;;3.30;;
70707;SDS011;58277;47.316;18.908;2023-07-20T04:54:02;8.07;;;3.40;;
70707;SDS011;58277;47.316;18.908;2023-07-20T04:56:34;7.15;;;3.50;;
70707;SDS011;58277;47.316;18.908;2023-07-20T05:02:06;5.80;;;3.60;;
70707;SDS011;58277;47.316;18.908;2023-07-20T05:04:29;7.65;;;3.72;;
70707;SDS011;58277;47.316;18.908;2023-07-20T05:07:01;8.13;;;5.10;;
70707;SDS011;58277;47.316;18.908;2023-07-20T05:09:24;8.20;;;5.00;;
70707;SDS011;58277;47.316;18.908;2023-07-20T05:11:48;5.90;;;4.00;;
70707;SDS011;58277;47.316;18.908;2023-07-20T05:14:12;7.93;;;4.30;;
70707;SDS011;58277;47.316;18.908;2023-07-20T05:16:34;8.63;;;5.30;;
70707;SDS011;58277;47.316;18.908;2023-07-20T05:19:00;7.57;;;4.50;;
70707;SDS011;58277;47.316;18.908;2023-07-20T05:21:23;6.63;;;4.40;;
70707;SDS011;58277;47.316;18.908;2023-07-20T05:23:46;10.57;;;4.43;;
70707;SDS011;58277;47.316;18.908;2023-07-20T05:26:09;11.97;;;4.97;;
70707;SDS011;58277;47.316;18.908;2023-07-20T05:28:32;8.15;;;4.72;;
70707;SDS011;58277;47.316;18.908;2023-07-20T05:30:56;8.13;;;4.88;;
70707;SDS011;58277;47.316;18.908;2023-07-20T05:33:22;8.35;;;5.40;;
70707;SDS011;58277;47.316;18.908;2023-07-20T05:35:45;7.53;;;5.00;;
70707;SDS011;58277;47.316;18.908;2023-07-20T05:38:08;9.47;;;5.17;;
70707;SDS011;58277;47.316;18.908;2023-07-20T05:40:31;8.70;;;5.50;;
70707;SDS011;58277;47.316;18.908;2023-07-20T05:42:54;8.02;;;4.55;;
70707;SDS011;58277;47.316;18.908;2023-07-20T05:45:19;8.55;;;4.80;;
70707;SDS011;58277;47.316;18.908;2023-07-20T05:47:42;8.88;;;5.35;;
70707;SDS011;58277;47.316;18.908;2023-07-20T05:50:05;8.33;;;4.83;;
70707;SDS011;58277;47.316;18.908;2023-07-20T05:52:31;8.32;;;4.70;;
70707;SDS011;58277;47.316;18.908;2023-07-20T05:54:55;11.55;;;6.40;;
70707;SDS011;58277;47.316;18.908;2023-07-20T05:57:17;11.90;;;5.40;;
70707;SDS011;58277;47.316;18.908;2023-07-20T05:59:40;7.57;;;4.68;;
70707;SDS011;58277;47.316;18.908;2023-07-20T06:02:06;7.43;;;3.97;;
70707;SDS011;58277;47.316;18.908;2023-07-20T06:04:30;7.75;;;5.60;;
70707;SDS011;58277;47.316;18.908;2023-07-20T06:06:53;7.43;;;4.53;;
70707;SDS011;58277;47.316;18.908;2023-07-20T06:09:15;12.75;;;5.22;;
70707;SDS011;58277;47.316;18.908;2023-07-20T06:11:38;11.93;;;4.30;;
70707;SDS011;58277;47.316;18.908;2023-07-20T06:14:01;6.67;;;4.13;;
70707;SDS011;58277;47.316;18.908;2023-07-20T06:16:24;6.18;;;3.80;;
70707;SDS011;58277;47.316;18.908;2023-07-20T06:18:47;8.02;;;4.25;;
70707;SDS011;58277;47.316;18.908;2023-07-20T06:21:10;6.63;;;4.00;;
70707;SDS011;58277;47.316;18.908;2023-07-20T06:23:33;8.60;;;4.18;;
70707;SDS011;58277;47.316;18.908;2023-07-20T06:25:55;7.83;;;3.77;;
70707;SDS011;58277;47.316;18.908;2023-07-20T06:28:18;6.07;;;4.20;;
70707;SDS011;58277;47.316;18.908;2023-07-20T06:30:41;6.65;;;3.90;;
70707;SDS011;58277;47.316;18.908;2023-07-20T06:33:04;10.50;;;4.20;;
70707;SDS011;58277;47.316;18.908;2023-07-20T06:35:27;8.93;;;4.15;;
70707;SDS011;58277;47.316;18.908;2023-07-20T06:37:50;7.23;;;3.87;;
70707;SDS011;58277;47.316;18.908;2023-07-20T06:40:12;9.18;;;4.28;;
70707;SDS011;58277;47.316;18.908;2023-07-20T06:42:38;7.07;;;4.05;;
70707;SDS011;58277;47.316;18.908;2023-07-20T06:45:04;6.80;;;4.22;;
70707;SDS011;58277;47.316;18.908;2023-07-20T06:47:27;6.10;;;4.20;;
70707;SDS011;58277;47.316;18.908;2023-07-20T06:49:52;6.57;;;3.93;;
70707;SDS011;58277;47.316;18.908;2023-07-20T06:52:15;10.07;;;4.18;;
70707;SDS011;58277;47.316;18.908;2023-07-20T06:54:38;9.48;;;4.35;;
70707;SDS011;58277;47.316;18.908;2023-07-20T06:57:06;8.20;;;4.70;;
70707;SDS011;58277;47.316;18.908;2023-07-20T06:59:32;13.40;;;6.70;;
70707;SDS011;58277;47.316;18.908;2023-07-20T07:01:55;8.17;;;4.60;;
70707;SDS011;58277;47.316;18.908;2023-07-20T07:04:19;10.73;;;6.05;;
70707;SDS011;58277;47.316;18.908;2023-07-20T07:06:43;8.70;;;4.40;;
70707;SDS011;58277;47.316;18.908;2023-07-20T07:09:06;8.52;;;4.43;;
70707;SDS011;58277;47.316;18.908;2023-07-20T07:11:34;7.70;;;4.10;;
70707;SDS011;58277;47.316;18.908;2023-07-20T07:13:56;10.83;;;5.87;;
70707;SDS011;58277;47.316;18.908;2023-07-20T07:16:20;6.95;;;4.72;;
70707;SDS011;58277;47.316;18.908;2023-07-20T07:18:46;9.15;;;3.80;;
70707;SDS011;58277;47.316;18.908;2023-07-20T07:21:12;9.13;;;3.67;;
70707;SDS011;58277;47.316;18.908;2023-07-20T07:23:35;5.88;;;3.90;;
70707;SDS011;58277;47.316;18.908;2023-07-20T07:25:58;5.63;;;4.00;;
70707;SDS011;58277;47.316;18.908;2023-07-20T07:28:21;7.38;;;4.05;;
70707;SDS011;58277;47.316;18.908;2023-07-20T07:30:44;7.88;;;3.95;;
70707;SDS011;58277;47.316;18.908;2023-07-20T07:33:07;5.75;;;3.90;;
70707;SDS011;58277;47.316;18.908;2023-07-20T07:35:33;8.73;;;3.67;;
70707;SDS011;58277;47.316;18.908;2023-07-20T07:37:56;11.70;;;5.33;;
70707;SDS011;58277;47.316;18.908;2023-07-20T07:40:40;14.02;;;5.10;;
70707;SDS011;58277;47.316;18.908;2023-07-20T07:43:02;7.75;;;4.80;;
70707;SDS011;58277;47.316;18.908;2023-07-20T07:45:26;5.93;;;3.60;;
70707;SDS011;58277;47.316;18.908;2023-07-20T07:47:49;7.63;;;3.75;;
70707;SDS011;58277;47.316;18.908;2023-07-20T07:50:12;6.77;;;3.80;;
70707;SDS011;58277;47.316;18.908;2023-07-20T07:52:34;9.65;;;4.05;;
70707;SDS011;58277;47.316;18.908;2023-07-20T07:54:57;8.73;;;3.67;;
70707;SDS011;58277;47.316;18.908;2023-07-20T07:57:20;7.05;;;3.40;;
70707;SDS011;58277;47.316;18.908;2023-07-20T07:59:43;7.00;;;3.47;;
70707;SDS011;58277;47.316;18.908;2023-07-20T08:02:06;8.17;;;3.43;;
70707;SDS011;58277;47.316;18.908;2023-07-20T08:04:29;7.93;;;3.42;;
70707;SDS011;58277;47.316;18.908;2023-07-20T08:06:52;4.28;;;3.20;;
70707;SDS011;58277;47.316;18.908;2023-07-20T08:09:15;11.82;;;3.47;;
70707;SDS011;58277;47.316;18.908;2023-07-20T08:11:39;4.10;;;3.17;;
70707;SDS011;58277;47.316;18.908;2023-07-20T08:14:02;6.60;;;3.63;;
70707;SDS011;58277;47.316;18.908;2023-07-20T08:16:25;9.90;;;3.47;;
70707;SDS011;58277;47.316;18.908;2023-07-20T08:18:48;7.20;;;3.53;;
70707;SDS011;58277;47.316;18.908;2023-07-20T08:21:11;4.85;;;3.05;;
70707;SDS011;58277;47.316;18.908;2023-07-20T08:23:34;6.13;;;3.10;;
70707;SDS011;58277;47.316;18.908;2023-07-20T08:25:56;4.73;;;3.03;;
70707;SDS011;58277;47.316;18.908;2023-07-20T08:28:19;7.80;;;3.00;;
70707;SDS011;58277;47.316;18.908;2023-07-20T08:30:45;4.75;;;3.25;;
70707;SDS011;58277;47.316;18.908;2023-07-20T08:33:10;5.28;;;3.25;;
70707;SDS011;58277;47.316;18.908;2023-07-20T08:35:36;6.40;;;3.38;;
70707;SDS011;58277;47.316;18.908;2023-07-20T08:38:04;4.83;;;3.10;;
70707;SDS011;58277;47.316;18.908;2023-07-20T08:40:27;6.43;;;3.00;;
70707;SDS011;58277;47.316;18.908;2023-07-20T08:42:54;3.78;;;2.90;;
70707;SDS011;58277;47.316;18.908;2023-07-20T08:45:19;7.45;;;3.35;;
70707;SDS011;58277;47.316;18.908;2023-07-20T08:47:44;7.45;;;3.63;;
70707;SDS011;58277;47.316;18.908;2023-07-20T08:50:12;5.33;;;2.90;;
70707;SDS011;58277;47.316;18.908;2023-07-20T08:52:36;5.80;;;3.00;;
70707;SDS011;58277;47.316;18.908;2023-07-20T08:54:59;4.93;;;2.70;;
70707;SDS011;58277;47.316;18.908;2023-07-20T08:57:25;5.20;;;3.05;;
70707;SDS011;58277;47.316;18.908;2023-07-20T08:59:49;3.85;;;2.90;;
70707;SDS011;58277;47.316;18.908;2023-07-20T09:02:16;4.90;;;3.00;;
70707;SDS011;58277;47.316;18.908;2023-07-20T09:04:41;6.78;;;2.88;;
70707;SDS011;58277;47.316;18.908;2023-07-20T09:07:05;5.85;;;2.85;;
70707;SDS011;58277;47.316;18.908;2023-07-20T09:09:28;4.97;;;3.15;;
70707;SDS011;58277;47.316;18.908;2023-07-20T09:11:51;5.35;;;3.00;;
70707;SDS011;58277;47.316;18.908;2023-07-20T09:14:14;5.80;;;3.17;;
70707;SDS011;58277;47.316;18.908;2023-07-20T09:16:50;4.75;;;2.97;;
70707;SDS011;58277;47.316;18.908;2023-07-20T09:19:16;7.07;;;3.40;;
70707;SDS011;58277;47.316;18.908;2023-07-20T09:21:39;4.55;;;2.95;;
70707;SDS011;58277;47.316;18.908;2023-07-20T09:24:02;4.95;;;2.85;;
70707;SDS011;58277;47.316;18.908;2023-07-20T09:26:25;4.47;;;2.83;;
70707;SDS011;58277;47.316;18.908;2023-07-20T09:28:53;3.65;;;2.70;;
70707;SDS011;58277;47.316;18.908;2023-07-20T09:31:18;4.30;;;2.63;;
70707;SDS011;58277;47.316;18.908;2023-07-20T09:33:42;6.70;;;3.10;;
70707;SDS011;58277;47.316;18.908;2023-07-20T09:36:22;6.60;;;3.00;;
70707;SDS011;58277;47.316;18.908;2023-07-20T09:39:06;6.03;;;2.87;;
70707;SDS011;58277;47.316;18.908;2023-07-20T09:41:30;4.05;;;2.85;;
70707;SDS011;58277;47.316;18.908;2023-07-20T09:44:04;5.03;;;2.90;;
70707;SDS011;58277;47.316;18.908;2023-07-20T09:46:48;3.90;;;2.92;;
70707;SDS011;58277;47.316;18.908;2023-07-20T09:49:14;5.85;;;2.83;;
70707;SDS011;58277;47.316;18.908;2023-07-20T09:51:46;4.03;;;2.67;;
70707;SDS011;58277;47.316;18.908;2023-07-20T09:54:13;3.78;;;2.58;;
70707;SDS011;58277;47.316;18.908;2023-07-20T09:56:36;6.13;;;2.72;;
70707;SDS011;58277;47.316;18.908;2023-07-20T09:59:00;5.78;;;3.38;;
70707;SDS011;58277;47.316;18.908;2023-07-20T10:01:23;5.95;;;2.70;;
70707;SDS011;58277;47.316;18.908;2023-07-20T10:03:51;4.77;;;2.90;;
70707;SDS011;58277;47.316;18.908;2023-07-20T10:06:16;6.60;;;3.08;;
70707;SDS011;58277;47.316;18.908;2023-07-20T10:09:06;6.70;;;2.92;;
70707;SDS011;58277;47.316;18.908;2023-07-20T10:11:30;4.93;;;2.83;;
70707;SDS011;58277;47.316;18.908;2023-07-20T10:13:55;3.95;;;2.88;;
70707;SDS011;58277;47.316;18.908;2023-07-20T10:19:22;5.03;;;2.90;;
70707;SDS011;58277;47.316;18.908;2023-07-20T10:21:48;6.35;;;3.05;;
70707;SDS011;58277;47.316;18.908;2023-07-20T10:24:20;4.75;;;2.90;;
70707;SDS011;58277;47.316;18.908;2023-07-20T10:26:44;4.90;;;3.00;;
70707;SDS011;58277;47.316;18.908;2023-07-20T10:29:06;7.37;;;2.93;;
70707;SDS011;58277;47.316;18.908;2023-07-20T10:31:30;6.55;;;3.20;;
70707;SDS011;58277;47.316;18.908;2023-07-20T10:33:56;5.95;;;3.28;;
70707;SDS011;58277;47.316;18.908;2023-07-20T10:36:26;6.40;;;2.97;;
70707;SDS011;58277;47.316;18.908;2023-07-20T10:38:56;5.57;;;3.20;;
70707;SDS011;58277;47.316;18.908;2023-07-20T10:43:48;6.93;;;3.10;;
70707;SDS011;58277;47.316;18.908;2023-07-20T10:46:11;8.63;;;3.20;;
70707;SDS011;58277;47.316;18.908;2023-07-20T10:48:35;5.97;;;3.20;;
70707;SDS011;58277;47.316;18.908;2023-07-20T10:51:27;12.40;;;3.33;;
70707;SDS011;58277;47.316;18.908;2023-07-20T10:53:50;7.60;;;2.90;;
70707;SDS011;58277;47.316;18.908;2023-07-20T10:56:14;4.45;;;3.20;;
70707;SDS011;58277;47.316;18.908;2023-07-20T10:58:44;8.23;;;3.28;;
70707;SDS011;58277;47.316;18.908;2023-07-20T11:01:09;8.00;;;3.25;;
70707;SDS011;58277;47.316;18.908;2023-07-20T11:03:38;5.70;;;3.28;;
70707;SDS011;58277;47.316;18.908;2023-07-20T11:09:04;6.30;;;3.30;;
70707;SDS011;58277;47.316;18.908;2023-07-20T11:11:32;7.85;;;3.20;;
70707;SDS011;58277;47.316;18.908;2023-07-20T11:14:01;5.38;;;3.10;;
70707;SDS011;58277;47.316;18.908;2023-07-20T11:16:38;5.78;;;3.30;;
70707;SDS011;58277;47.316;18.908;2023-07-20T11:19:10;6.97;;;3.07;;
70707;SDS011;58277;47.316;18.908;2023-07-20T11:21:59;4.65;;;2.67;;
70707;SDS011;58277;47.316;18.908;2023-07-20T11:24:26;5.63;;;2.55;;
70707;SDS011;58277;47.316;18.908;2023-07-20T11:26:51;4.35;;;2.58;;
70707;SDS011;58277;47.316;18.908;2023-07-20T11:29:16;9.88;;;2.53;;
70707;SDS011;58277;47.316;18.908;2023-07-20T11:31:53;4.37;;;2.43;;
70707;SDS011;58277;47.316;18.908;2023-07-20T11:34:16;4.40;;;2.50;;
70707;SDS011;58277;47.316;18.908;2023-07-20T11:36:43;4.85;;;2.70;;
70707;SDS011;58277;47.316;18.908;2023-07-20T11:39:11;4.60;;;2.70;;
70707;SDS011;58277;47.316;18.908;2023-07-20T11:41:37;3.70;;;2.83;;
70707;SDS011;58277;47.316;18.908;2023-07-20T11:44:00;6.00;;;3.10;;
70707;SDS011;58277;47.316;18.908;2023-07-20T11:46:24;5.55;;;2.78;;
70707;SDS011;58277;47.316;18.908;2023-07-20T11:48:48;5.63;;;2.63;;
70707;SDS011;58277;47.316;18.908;2023-07-20T11:51:15;5.20;;;2.83;;
70707;SDS011;58277;47.316;18.908;2023-07-20T11:53:39;5.07;;;2.53;;
70707;SDS011;58277;47.316;18.908;2023-07-20T11:56:01;6.13;;;2.70;;
70707;SDS011;58277;47.316;18.908;2023-07-20T11:58:27;4.95;;;2.47;;
70707;SDS011;58277;47.316;18.908;2023-07-20T12:00:50;5.53;;;2.60;;
70707;SDS011;58277;47.316;18.908;2023-07-20T12:03:13;6.53;;;2.70;;
70707;SDS011;58277;47.316;18.908;2023-07-20T12:05:37;4.35;;;2.83;;
70707;SDS011;58277;47.316;18.908;2023-07-20T12:08:21;4.13;;;2.80;;
70707;SDS011;58277;47.316;18.908;2023-07-20T12:10:45;5.25;;;2.92;;
70707;SDS011;58277;47.316;18.908;2023-07-20T12:13:09;5.97;;;3.13;;
70707;SDS011;58277;47.316;18.908;2023-07-20T12:15:34;9.10;;;3.40;;
70707;SDS011;58277;47.316;18.908;2023-07-20T12:17:59;8.65;;;3.15;;
70707;SDS011;58277;47.316;18.908;2023-07-20T12:20:26;9.07;;;2.90;;
70707;SDS011;58277;47.316;18.908;2023-07-20T12:23:01;5.15;;;2.60;;
70707;SDS011;58277;47.316;18.908;2023-07-20T12:25:23;4.20;;;2.40;;
70707;SDS011;58277;47.316;18.908;2023-07-20T12:28:19;4.63;;;2.50;;
70707;SDS011;58277;47.316;18.908;2023-07-20T12:30:43;6.85;;;2.55;;
70707;SDS011;58277;47.316;18.908;2023-07-20T12:33:07;4.87;;;2.50;;
70707;SDS011;58277;47.316;18.908;2023-07-20T12:35:30;5.45;;;2.60;;
70707;SDS011;58277;47.316;18.908;2023-07-20T12:37:53;4.78;;;2.80;;
70707;SDS011;58277;47.316;18.908;2023-07-20T12:40:17;6.32;;;2.53;;
70707;SDS011;58277;47.316;18.908;2023-07-20T12:42:40;4.18;;;2.70;;
70707;SDS011;58277;47.316;18.908;2023-07-20T12:45:03;9.13;;;2.60;;
70707;SDS011;58277;47.316;18.908;2023-07-20T12:47:26;5.45;;;2.75;;
70707;SDS011;58277;47.316;18.908;2023-07-20T12:49:49;4.72;;;3.03;;
70707;SDS011;58277;47.316;18.908;2023-07-20T12:52:12;5.68;;;2.80;;
70707;SDS011;58277;47.316;18.908;2023-07-20T12:54:35;3.80;;;2.67;;
70707;SDS011;58277;47.316;18.908;2023-07-20T12:56:58;4.97;;;2.30;;
70707;SDS011;58277;47.316;18.908;2023-07-20T12:59:24;5.30;;;2.88;;
70707;SDS011;58277;47.316;18.908;2023-07-20T13:01:47;3.90;;;2.70;;
70707;SDS011;58277;47.316;18.908;2023-07-20T13:04:09;6.15;;;2.47;;
70707;SDS011;58277;47.316;18.908;2023-07-20T13:06:36;4.60;;;2.88;;
70707;SDS011;58277;47.316;18.908;2023-07-20T13:08:59;4.70;;;2.77;;
70707;SDS011;58277;47.316;18.908;2023-07-20T13:11:21;5.88;;;2.90;;
70707;SDS011;58277;47.316;18.908;2023-07-20T13:13:45;4.70;;;2.78;;
70707;SDS011;58277;47.316;18.908;2023-07-20T13:16:08;4.82;;;2.80;;
70707;SDS011;58277;47.316;18.908;2023-07-20T13:18:30;4.57;;;2.80;;
70707;SDS011;58277;47.316;18.908;2023-07-20T13:20:53;4.43;;;2.80;;
70707;SDS011;58277;47.316;18.908;2023-07-20T13:23:16;4.28;;;2.83;;
70707;SDS011;58277;47.316;18.908;2023-07-20T13:25:38;5.38;;;3.10;;
70707;SDS011;58277;47.316;18.908;2023-07-20T13:28:04;4.45;;;2.35;;
70707;SDS011;58277;47.316;18.908;2023-07-20T13:30:28;3.80;;;2.90;;
70707;SDS011;58277;47.316;18.908;2023-07-20T13:32:51;5.10;;;2.70;;
70707;SDS011;58277;47.316;18.908;2023-07-20T13:35:16;3.90;;;2.90;;
70707;SDS011;58277;47.316;18.908;2023-07-20T13:37:39;5.50;;;2.80;;
70707;SDS011;58277;47.316;18.908;2023-07-20T13:40:03;6.03;;;2.30;;
70707;SDS011;58277;47.316;18.908;2023-07-20T13:42:29;5.60;;;2.60;;
70707;SDS011;58277;47.316;18.908;2023-07-20T13:44:51;6.07;;;2.47;;
70707;SDS011;58277;47.316;18.908;2023-07-20T13:47:14;4.28;;;2.42;;
70707;SDS011;58277;47.316;18.908;2023-07-20T13:49:40;6.40;;;2.53;;
70707;SDS011;58277;47.316;18.908;2023-07-20T13:52:06;3.63;;;2.70;;
70707;SDS011;58277;47.316;18.908;2023-07-20T13:54:32;5.43;;;3.10;;
70707;SDS011;58277;47.316;18.908;2023-07-20T13:56:56;4.37;;;2.60;;
70707;SDS011;58277;47.316;18.908;2023-07-20T13:59:18;5.03;;;2.40;;
70707;SDS011;58277;47.316;18.908;2023-07-20T14:01:41;3.47;;;2.50;;
70707;SDS011;58277;47.316;18.908;2023-07-20T14:04:05;4.25;;;2.40;;
70707;SDS011;58277;47.316;18.908;2023-07-20T14:06:29;6.00;;;2.85;;
70707;SDS011;58277;47.316;18.908;2023-07-20T14:08:53;5.10;;;2.47;;
70707;SDS011;58277;47.316;18.908;2023-07-20T14:11:17;3.50;;;2.38;;
70707;SDS011;58277;47.316;18.908;2023-07-20T14:13:43;4.03;;;2.70;;
70707;SDS011;58277;47.316;18.908;2023-07-20T14:16:11;4.43;;;2.50;;
70707;SDS011;58277;47.316;18.908;2023-07-20T14:18:35;4.53;;;2.67;;
70707;SDS011;58277;47.316;18.908;2023-07-20T14:20:58;5.80;;;2.50;;
70707;SDS011;58277;47.316;18.908;2023-07-20T14:23:21;7.57;;;2.70;;
70707;SDS011;58277;47.316;18.908;2023-07-20T14:25:48;4.93;;;2.60;;
70707;SDS011;58277;47.316;18.908;2023-07-20T14:28:11;7.20;;;2.50;;
70707;SDS011;58277;47.316;18.908;2023-07-20T14:30:34;4.65;;;2.60;;
70707;SDS011;58277;47.316;18.908;2023-07-20T14:32:56;3.93;;;2.50;;
70707;SDS011;58277;47.316;18.908;2023-07-20T14:35:19;4.35;;;2.30;;
70707;SDS011;58277;47.316;18.908;2023-07-20T14:37:42;4.22;;;2.60;;
70707;SDS011;58277;47.316;18.908;2023-07-20T14:40:05;6.82;;;2.38;;